sensor_id;sensor_type;location;lat;lon;timestamp;P1;durP1;ratioP1;P2;durP2;ratioP2
67065;SDS011;53978;43.846;25.952;2022-11-20T00:01:44;20.38;;;11.75;;
67065;SDS011;53978;43.846;25.952;2022-11-20T00:04:10;18.95;;;12.02;;
67065;SDS011;53978;43.846;25.952;2022-11-20T00:06:36;18.58;;;11.60;;
67065;SDS011;53978;43.846;25.952;2022-11-20T00:09:02;20.13;;;11.60;;
67065;SDS011;53978;43.846;25.952;2022-11-20T00:11:28;20.27;;;12.10;;
67065;SDS011;53978;43.846;25.952;2022-11-20T00:13:55;20.55;;;12.85;;
67065;SDS011;53978;43.846;25.952;2022-11-20T00:16:23;18.45;;;10.63;;
67065;SDS011;53978;43.846;25.952;2022-11-20T00:18:49;19.52;;;11.95;;
67065;SDS011;53978;43.846;25.952;2022-11-20T00:21:16;21.20;;;12.98;;
67065;SDS011;53978;43.846;25.952;2022-11-20T00:23:43;21.50;;;11.70;;
67065;SDS011;53978;43.846;25.952;2022-11-20T00:26:10;23.10;;;12.50;;
67065;SDS011;53978;43.846;25.952;2022-11-20T00:28:37;22.92;;;12.05;;
67065;SDS011;53978;43.846;25.952;2022-11-20T00:31:07;22.55;;;13.20;;
67065;SDS011;53978;43.846;25.952;2022-11-20T00:33:39;17.52;;;11.57;;
67065;SDS011;53978;43.846;25.952;2022-11-20T00:36:06;23.00;;;13.00;;
67065;SDS011;53978;43.846;25.952;2022-11-20T00:38:33;20.67;;;12.27;;
67065;SDS011;53978;43.846;25.952;2022-11-20T00:40:59;20.42;;;12.90;;
67065;SDS011;53978;43.846;25.952;2022-11-20T00:43:28;22.95;;;12.77;;
67065;SDS011;53978;43.846;25.952;2022-11-20T00:46:01;20.42;;;11.73;;
67065;SDS011;53978;43.846;25.952;2022-11-20T00:48:28;20.67;;;11.50;;
67065;SDS011;53978;43.846;25.952;2022-11-20T00:50:53;20.35;;;11.75;;
67065;SDS011;53978;43.846;25.952;2022-11-20T00:53:19;22.17;;;11.63;;
67065;SDS011;53978;43.846;25.952;2022-11-20T00:58:23;21.25;;;11.43;;
67065;SDS011;53978;43.846;25.952;2022-11-20T01:00:49;20.42;;;11.02;;
67065;SDS011;53978;43.846;25.952;2022-11-20T01:03:15;18.13;;;9.73;;
67065;SDS011;53978;43.846;25.952;2022-11-20T01:05:41;21.90;;;11.98;;
67065;SDS011;53978;43.846;25.952;2022-11-20T01:08:06;18.67;;;11.60;;
67065;SDS011;53978;43.846;25.952;2022-11-20T01:10:32;20.95;;;12.20;;
67065;SDS011;53978;43.846;25.952;2022-11-20T01:12:57;20.13;;;11.07;;
67065;SDS011;53978;43.846;25.952;2022-11-20T01:15:41;23.80;;;10.65;;
67065;SDS011;53978;43.846;25.952;2022-11-20T01:18:07;20.88;;;10.77;;
67065;SDS011;53978;43.846;25.952;2022-11-20T01:20:35;22.38;;;12.23;;
67065;SDS011;53978;43.846;25.952;2022-11-20T01:23:02;22.52;;;11.40;;
67065;SDS011;53978;43.846;25.952;2022-11-20T01:25:28;16.63;;;10.38;;
67065;SDS011;53978;43.846;25.952;2022-11-20T01:27:53;19.13;;;11.57;;
67065;SDS011;53978;43.846;25.952;2022-11-20T01:30:19;19.75;;;10.77;;
67065;SDS011;53978;43.846;25.952;2022-11-20T01:32:44;17.00;;;8.98;;
67065;SDS011;53978;43.846;25.952;2022-11-20T01:35:12;20.98;;;11.13;;
67065;SDS011;53978;43.846;25.952;2022-11-20T01:37:37;19.58;;;11.05;;
67065;SDS011;53978;43.846;25.952;2022-11-20T01:40:05;20.27;;;10.43;;
67065;SDS011;53978;43.846;25.952;2022-11-20T01:42:31;23.05;;;10.20;;
67065;SDS011;53978;43.846;25.952;2022-11-20T01:48:22;21.55;;;9.90;;
67065;SDS011;53978;43.846;25.952;2022-11-20T01:50:49;20.55;;;10.82;;
67065;SDS011;53978;43.846;25.952;2022-11-20T01:53:16;18.35;;;10.15;;
67065;SDS011;53978;43.846;25.952;2022-11-20T01:55:48;16.50;;;9.70;;
67065;SDS011;53978;43.846;25.952;2022-11-20T01:58:16;20.90;;;9.43;;
67065;SDS011;53978;43.846;25.952;2022-11-20T02:00:45;20.27;;;10.55;;
67065;SDS011;53978;43.846;25.952;2022-11-20T02:03:11;25.05;;;10.65;;
67065;SDS011;53978;43.846;25.952;2022-11-20T02:05:46;24.95;;;10.55;;
67065;SDS011;53978;43.846;25.952;2022-11-20T02:08:16;18.00;;;9.23;;
67065;SDS011;53978;43.846;25.952;2022-11-20T02:10:42;16.52;;;9.65;;
67065;SDS011;53978;43.846;25.952;2022-11-20T02:13:08;16.73;;;8.35;;
67065;SDS011;53978;43.846;25.952;2022-11-20T02:15:52;18.00;;;8.50;;
67065;SDS011;53978;43.846;25.952;2022-11-20T02:18:18;16.70;;;8.57;;
67065;SDS011;53978;43.846;25.952;2022-11-20T02:20:46;17.67;;;7.47;;
67065;SDS011;53978;43.846;25.952;2022-11-20T02:23:16;13.95;;;7.72;;
67065;SDS011;53978;43.846;25.952;2022-11-20T02:25:47;20.88;;;7.97;;
67065;SDS011;53978;43.846;25.952;2022-11-20T02:28:13;16.50;;;8.07;;
67065;SDS011;53978;43.846;25.952;2022-11-20T02:30:38;16.45;;;7.80;;
67065;SDS011;53978;43.846;25.952;2022-11-20T02:33:03;15.40;;;7.90;;
67065;SDS011;53978;43.846;25.952;2022-11-20T02:37:58;19.35;;;8.65;;
67065;SDS011;53978;43.846;25.952;2022-11-20T02:40:25;16.33;;;7.85;;
67065;SDS011;53978;43.846;25.952;2022-11-20T02:42:54;14.77;;;9.07;;
67065;SDS011;53978;43.846;25.952;2022-11-20T02:45:20;13.55;;;7.78;;
67065;SDS011;53978;43.846;25.952;2022-11-20T02:47:47;20.73;;;8.38;;
67065;SDS011;53978;43.846;25.952;2022-11-20T02:50:13;14.38;;;8.10;;
67065;SDS011;53978;43.846;25.952;2022-11-20T02:52:38;14.40;;;7.70;;
67065;SDS011;53978;43.846;25.952;2022-11-20T02:55:04;16.67;;;7.97;;
67065;SDS011;53978;43.846;25.952;2022-11-20T02:57:30;24.23;;;7.80;;
67065;SDS011;53978;43.846;25.952;2022-11-20T02:59:55;14.55;;;8.13;;
67065;SDS011;53978;43.846;25.952;2022-11-20T03:02:20;14.82;;;7.78;;
67065;SDS011;53978;43.846;25.952;2022-11-20T03:04:46;16.45;;;7.82;;
67065;SDS011;53978;43.846;25.952;2022-11-20T03:07:11;17.45;;;8.30;;
67065;SDS011;53978;43.846;25.952;2022-11-20T03:09:37;17.20;;;7.63;;
67065;SDS011;53978;43.846;25.952;2022-11-20T03:12:02;16.77;;;8.30;;
67065;SDS011;53978;43.846;25.952;2022-11-20T03:14:28;15.98;;;8.32;;
67065;SDS011;53978;43.846;25.952;2022-11-20T03:16:53;16.88;;;8.77;;
67065;SDS011;53978;43.846;25.952;2022-11-20T03:19:20;17.92;;;8.35;;
67065;SDS011;53978;43.846;25.952;2022-11-20T03:21:45;15.30;;;9.00;;
67065;SDS011;53978;43.846;25.952;2022-11-20T03:24:10;24.40;;;9.02;;
67065;SDS011;53978;43.846;25.952;2022-11-20T03:26:38;16.45;;;8.00;;
67065;SDS011;53978;43.846;25.952;2022-11-20T03:29:04;19.77;;;8.57;;
67065;SDS011;53978;43.846;25.952;2022-11-20T03:31:31;21.52;;;8.82;;
67065;SDS011;53978;43.846;25.952;2022-11-20T03:33:57;13.60;;;8.10;;
67065;SDS011;53978;43.846;25.952;2022-11-20T03:36:24;19.00;;;8.75;;
67065;SDS011;53978;43.846;25.952;2022-11-20T03:38:49;19.23;;;9.07;;
67065;SDS011;53978;43.846;25.952;2022-11-20T03:41:18;15.43;;;9.13;;
67065;SDS011;53978;43.846;25.952;2022-11-20T03:43:52;19.55;;;9.50;;
67065;SDS011;53978;43.846;25.952;2022-11-20T03:46:19;16.33;;;8.95;;
67065;SDS011;53978;43.846;25.952;2022-11-20T03:48:45;16.27;;;9.40;;
67065;SDS011;53978;43.846;25.952;2022-11-20T03:51:12;19.83;;;9.45;;
67065;SDS011;53978;43.846;25.952;2022-11-20T03:53:42;20.48;;;9.20;;
67065;SDS011;53978;43.846;25.952;2022-11-20T03:56:09;19.98;;;9.02;;
67065;SDS011;53978;43.846;25.952;2022-11-20T03:58:36;14.52;;;8.23;;
67065;SDS011;53978;43.846;25.952;2022-11-20T04:01:14;22.63;;;9.98;;
67065;SDS011;53978;43.846;25.952;2022-11-20T04:03:43;16.58;;;8.55;;
67065;SDS011;53978;43.846;25.952;2022-11-20T04:06:13;17.63;;;9.30;;
67065;SDS011;53978;43.846;25.952;2022-11-20T04:08:46;19.92;;;8.18;;
67065;SDS011;53978;43.846;25.952;2022-11-20T04:13:47;16.05;;;9.15;;
67065;SDS011;53978;43.846;25.952;2022-11-20T04:16:14;18.52;;;10.20;;
67065;SDS011;53978;43.846;25.952;2022-11-20T04:18:40;15.25;;;8.65;;
67065;SDS011;53978;43.846;25.952;2022-11-20T04:21:06;23.58;;;10.38;;
67065;SDS011;53978;43.846;25.952;2022-11-20T04:23:32;20.10;;;10.10;;
67065;SDS011;53978;43.846;25.952;2022-11-20T04:26:03;19.83;;;10.07;;
67065;SDS011;53978;43.846;25.952;2022-11-20T04:28:30;19.40;;;9.77;;
67065;SDS011;53978;43.846;25.952;2022-11-20T04:31:01;20.65;;;10.27;;
67065;SDS011;53978;43.846;25.952;2022-11-20T04:33:37;23.15;;;9.38;;
67065;SDS011;53978;43.846;25.952;2022-11-20T04:36:03;18.95;;;10.20;;
67065;SDS011;53978;43.846;25.952;2022-11-20T04:38:31;15.80;;;8.77;;
67065;SDS011;53978;43.846;25.952;2022-11-20T04:41:00;19.27;;;10.18;;
67065;SDS011;53978;43.846;25.952;2022-11-20T04:43:26;18.88;;;9.20;;
67065;SDS011;53978;43.846;25.952;2022-11-20T04:45:56;21.10;;;11.20;;
67065;SDS011;53978;43.846;25.952;2022-11-20T04:48:22;24.10;;;10.45;;
67065;SDS011;53978;43.846;25.952;2022-11-20T04:50:48;26.90;;;11.15;;
67065;SDS011;53978;43.846;25.952;2022-11-20T04:53:13;17.75;;;9.93;;
67065;SDS011;53978;43.846;25.952;2022-11-20T04:55:43;19.13;;;9.95;;
67065;SDS011;53978;43.846;25.952;2022-11-20T04:58:09;23.55;;;9.45;;
67065;SDS011;53978;43.846;25.952;2022-11-20T05:00:34;23.23;;;10.05;;
67065;SDS011;53978;43.846;25.952;2022-11-20T05:03:00;18.55;;;10.52;;
67065;SDS011;53978;43.846;25.952;2022-11-20T05:05:25;14.10;;;7.68;;
67065;SDS011;53978;43.846;25.952;2022-11-20T05:07:51;21.52;;;10.48;;
67065;SDS011;53978;43.846;25.952;2022-11-20T05:10:16;21.85;;;10.05;;
67065;SDS011;53978;43.846;25.952;2022-11-20T05:12:42;22.20;;;9.88;;
67065;SDS011;53978;43.846;25.952;2022-11-20T05:15:07;21.17;;;9.77;;
67065;SDS011;53978;43.846;25.952;2022-11-20T05:17:33;20.00;;;9.95;;
67065;SDS011;53978;43.846;25.952;2022-11-20T05:19:58;18.63;;;8.85;;
67065;SDS011;53978;43.846;25.952;2022-11-20T05:22:24;23.77;;;10.30;;
67065;SDS011;53978;43.846;25.952;2022-11-20T05:24:49;21.63;;;10.32;;
67065;SDS011;53978;43.846;25.952;2022-11-20T05:27:14;17.88;;;9.50;;
67065;SDS011;53978;43.846;25.952;2022-11-20T05:29:40;21.92;;;10.20;;
67065;SDS011;53978;43.846;25.952;2022-11-20T05:32:05;19.38;;;10.15;;
67065;SDS011;53978;43.846;25.952;2022-11-20T05:34:34;24.80;;;10.82;;
67065;SDS011;53978;43.846;25.952;2022-11-20T05:37:00;22.55;;;10.95;;
67065;SDS011;53978;43.846;25.952;2022-11-20T05:39:26;24.50;;;11.40;;
67065;SDS011;53978;43.846;25.952;2022-11-20T05:41:54;19.50;;;8.93;;
67065;SDS011;53978;43.846;25.952;2022-11-20T05:44:38;20.77;;;9.98;;
67065;SDS011;53978;43.846;25.952;2022-11-20T05:47:04;18.13;;;9.30;;
67065;SDS011;53978;43.846;25.952;2022-11-20T05:49:30;20.38;;;9.82;;
67065;SDS011;53978;43.846;25.952;2022-11-20T05:51:55;17.33;;;9.38;;
67065;SDS011;53978;43.846;25.952;2022-11-20T05:54:20;20.23;;;9.35;;
67065;SDS011;53978;43.846;25.952;2022-11-20T05:56:46;19.52;;;9.65;;
67065;SDS011;53978;43.846;25.952;2022-11-20T05:59:11;19.15;;;9.45;;
67065;SDS011;53978;43.846;25.952;2022-11-20T06:01:37;24.83;;;9.45;;
67065;SDS011;53978;43.846;25.952;2022-11-20T06:04:03;17.35;;;8.43;;
67065;SDS011;53978;43.846;25.952;2022-11-20T06:06:28;19.38;;;9.43;;
67065;SDS011;53978;43.846;25.952;2022-11-20T06:08:54;22.13;;;8.65;;
67065;SDS011;53978;43.846;25.952;2022-11-20T06:11:19;15.55;;;7.65;;
67065;SDS011;53978;43.846;25.952;2022-11-20T06:13:45;13.50;;;7.57;;
67065;SDS011;53978;43.846;25.952;2022-11-20T06:16:12;15.35;;;8.38;;
67065;SDS011;53978;43.846;25.952;2022-11-20T06:18:39;15.55;;;7.30;;
67065;SDS011;53978;43.846;25.952;2022-11-20T06:24:04;13.77;;;7.47;;
67065;SDS011;53978;43.846;25.952;2022-11-20T06:26:50;14.27;;;8.02;;
67065;SDS011;53978;43.846;25.952;2022-11-20T06:29:18;22.13;;;7.20;;
67065;SDS011;53978;43.846;25.952;2022-11-20T06:31:46;16.63;;;7.53;;
67065;SDS011;53978;43.846;25.952;2022-11-20T06:34:14;19.52;;;7.57;;
67065;SDS011;53978;43.846;25.952;2022-11-20T06:37:06;16.83;;;7.32;;
67065;SDS011;53978;43.846;25.952;2022-11-20T06:39:34;13.85;;;5.95;;
67065;SDS011;53978;43.846;25.952;2022-11-20T06:42:11;14.55;;;7.00;;
67065;SDS011;53978;43.846;25.952;2022-11-20T06:44:54;15.98;;;7.78;;
67065;SDS011;53978;43.846;25.952;2022-11-20T06:47:25;15.13;;;7.97;;
67065;SDS011;53978;43.846;25.952;2022-11-20T06:50:17;15.30;;;7.38;;
67065;SDS011;53978;43.846;25.952;2022-11-20T06:53:01;17.08;;;7.50;;
67065;SDS011;53978;43.846;25.952;2022-11-20T06:55:42;13.00;;;6.70;;
67065;SDS011;53978;43.846;25.952;2022-11-20T06:58:38;14.95;;;7.13;;
67065;SDS011;53978;43.846;25.952;2022-11-20T07:01:05;16.23;;;7.22;;
67065;SDS011;53978;43.846;25.952;2022-11-20T07:03:32;17.00;;;6.75;;
67065;SDS011;53978;43.846;25.952;2022-11-20T07:05:58;16.48;;;7.30;;
67065;SDS011;53978;43.846;25.952;2022-11-20T07:08:25;17.58;;;7.30;;
67065;SDS011;53978;43.846;25.952;2022-11-20T07:10:53;13.60;;;6.82;;
67065;SDS011;53978;43.846;25.952;2022-11-20T07:13:22;14.32;;;6.93;;
67065;SDS011;53978;43.846;25.952;2022-11-20T07:15:47;12.15;;;6.85;;
67065;SDS011;53978;43.846;25.952;2022-11-20T07:18:13;12.68;;;6.85;;
67065;SDS011;53978;43.846;25.952;2022-11-20T07:20:38;13.85;;;6.53;;
67065;SDS011;53978;43.846;25.952;2022-11-20T07:23:04;14.57;;;6.88;;
67065;SDS011;53978;43.846;25.952;2022-11-20T07:25:29;15.65;;;6.63;;
67065;SDS011;53978;43.846;25.952;2022-11-20T07:27:58;13.70;;;6.32;;
67065;SDS011;53978;43.846;25.952;2022-11-20T07:30:24;12.55;;;5.63;;
67065;SDS011;53978;43.846;25.952;2022-11-20T07:32:51;17.38;;;6.72;;
67065;SDS011;53978;43.846;25.952;2022-11-20T07:35:16;12.55;;;6.22;;
67065;SDS011;53978;43.846;25.952;2022-11-20T07:37:42;13.07;;;6.60;;
67065;SDS011;53978;43.846;25.952;2022-11-20T07:40:07;15.07;;;6.60;;
67065;SDS011;53978;43.846;25.952;2022-11-20T07:42:33;20.55;;;7.53;;
67065;SDS011;53978;43.846;25.952;2022-11-20T07:44:59;14.30;;;6.47;;
67065;SDS011;53978;43.846;25.952;2022-11-20T07:47:24;15.52;;;7.00;;
67065;SDS011;53978;43.846;25.952;2022-11-20T07:49:49;16.38;;;6.95;;
67065;SDS011;53978;43.846;25.952;2022-11-20T07:52:15;11.60;;;6.20;;
67065;SDS011;53978;43.846;25.952;2022-11-20T07:54:40;16.95;;;7.07;;
67065;SDS011;53978;43.846;25.952;2022-11-20T07:57:06;15.95;;;7.07;;
67065;SDS011;53978;43.846;25.952;2022-11-20T07:59:31;20.52;;;8.10;;
67065;SDS011;53978;43.846;25.952;2022-11-20T08:01:56;17.30;;;8.38;;
67065;SDS011;53978;43.846;25.952;2022-11-20T08:04:22;21.02;;;7.88;;
67065;SDS011;53978;43.846;25.952;2022-11-20T08:06:48;17.85;;;7.88;;
67065;SDS011;53978;43.846;25.952;2022-11-20T08:09:16;17.65;;;8.57;;
67065;SDS011;53978;43.846;25.952;2022-11-20T08:11:41;21.80;;;8.68;;
67065;SDS011;53978;43.846;25.952;2022-11-20T08:14:31;18.00;;;7.83;;
67065;SDS011;53978;43.846;25.952;2022-11-20T08:17:02;17.85;;;6.93;;
67065;SDS011;53978;43.846;25.952;2022-11-20T08:19:27;14.85;;;7.22;;
67065;SDS011;53978;43.846;25.952;2022-11-20T08:21:53;11.80;;;6.32;;
67065;SDS011;53978;43.846;25.952;2022-11-20T08:24:40;11.40;;;6.22;;
67065;SDS011;53978;43.846;25.952;2022-11-20T08:27:06;12.52;;;5.47;;
67065;SDS011;53978;43.846;25.952;2022-11-20T08:29:32;13.30;;;5.88;;
67065;SDS011;53978;43.846;25.952;2022-11-20T08:31:57;11.45;;;5.60;;
67065;SDS011;53978;43.846;25.952;2022-11-20T08:34:22;12.43;;;6.90;;
67065;SDS011;53978;43.846;25.952;2022-11-20T08:36:48;15.15;;;6.72;;
67065;SDS011;53978;43.846;25.952;2022-11-20T08:39:13;12.32;;;6.65;;
67065;SDS011;53978;43.846;25.952;2022-11-20T08:41:39;12.02;;;6.47;;
67065;SDS011;53978;43.846;25.952;2022-11-20T08:44:05;11.75;;;6.65;;
67065;SDS011;53978;43.846;25.952;2022-11-20T08:46:33;12.85;;;6.68;;
67065;SDS011;53978;43.846;25.952;2022-11-20T08:49:02;14.07;;;6.93;;
67065;SDS011;53978;43.846;25.952;2022-11-20T08:51:28;15.18;;;7.13;;
67065;SDS011;53978;43.846;25.952;2022-11-20T08:53:54;17.90;;;6.70;;
67065;SDS011;53978;43.846;25.952;2022-11-20T08:56:19;14.07;;;6.95;;
67065;SDS011;53978;43.846;25.952;2022-11-20T08:58:44;16.35;;;6.88;;
67065;SDS011;53978;43.846;25.952;2022-11-20T09:01:10;16.25;;;7.45;;
67065;SDS011;53978;43.846;25.952;2022-11-20T09:03:36;19.50;;;8.57;;
67065;SDS011;53978;43.846;25.952;2022-11-20T09:06:02;18.25;;;8.43;;
67065;SDS011;53978;43.846;25.952;2022-11-20T09:08:28;17.65;;;7.93;;
67065;SDS011;53978;43.846;25.952;2022-11-20T09:10:55;16.20;;;8.25;;
67065;SDS011;53978;43.846;25.952;2022-11-20T09:13:21;14.40;;;7.85;;
67065;SDS011;53978;43.846;25.952;2022-11-20T09:15:52;15.60;;;7.10;;
67065;SDS011;53978;43.846;25.952;2022-11-20T09:18:21;14.63;;;7.10;;
67065;SDS011;53978;43.846;25.952;2022-11-20T09:20:47;12.93;;;7.30;;
67065;SDS011;53978;43.846;25.952;2022-11-20T09:23:12;16.60;;;7.70;;
67065;SDS011;53978;43.846;25.952;2022-11-20T09:25:38;13.23;;;7.30;;
67065;SDS011;53978;43.846;25.952;2022-11-20T09:28:03;15.30;;;7.65;;
67065;SDS011;53978;43.846;25.952;2022-11-20T09:30:29;16.52;;;7.88;;
67065;SDS011;53978;43.846;25.952;2022-11-20T09:32:55;16.52;;;7.80;;
67065;SDS011;53978;43.846;25.952;2022-11-20T09:35:21;17.52;;;8.65;;
67065;SDS011;53978;43.846;25.952;2022-11-20T09:37:47;17.05;;;8.27;;
67065;SDS011;53978;43.846;25.952;2022-11-20T09:40:19;17.73;;;8.63;;
67065;SDS011;53978;43.846;25.952;2022-11-20T09:43:00;17.35;;;8.55;;
67065;SDS011;53978;43.846;25.952;2022-11-20T09:45:54;15.65;;;8.07;;
67065;SDS011;53978;43.846;25.952;2022-11-20T09:48:42;15.85;;;7.90;;
67065;SDS011;53978;43.846;25.952;2022-11-20T09:51:13;13.77;;;8.50;;
67065;SDS011;53978;43.846;25.952;2022-11-20T09:56:31;14.07;;;7.65;;
67065;SDS011;53978;43.846;25.952;2022-11-20T09:58:59;17.85;;;8.77;;
67065;SDS011;53978;43.846;25.952;2022-11-20T10:01:37;16.50;;;8.13;;
67065;SDS011;53978;43.846;25.952;2022-11-20T10:04:10;15.90;;;8.23;;
67065;SDS011;53978;43.846;25.952;2022-11-20T10:09:35;15.90;;;7.93;;
67065;SDS011;53978;43.846;25.952;2022-11-20T10:15:16;19.77;;;8.93;;
67065;SDS011;53978;43.846;25.952;2022-11-20T10:28:28;14.15;;;8.05;;
67065;SDS011;53978;43.846;25.952;2022-11-20T10:31:02;15.05;;;7.78;;
67065;SDS011;53978;43.846;25.952;2022-11-20T10:33:29;11.85;;;7.15;;
67065;SDS011;53978;43.846;25.952;2022-11-20T10:36:05;15.38;;;8.02;;
67065;SDS011;53978;43.846;25.952;2022-11-20T10:38:40;14.27;;;7.47;;
67065;SDS011;53978;43.846;25.952;2022-11-20T10:41:08;13.27;;;7.32;;
67065;SDS011;53978;43.846;25.952;2022-11-20T10:43:52;47.35;;;9.63;;
67065;SDS011;53978;43.846;25.952;2022-11-20T10:46:32;59.58;;;11.27;;
67065;SDS011;53978;43.846;25.952;2022-11-20T10:49:02;30.17;;;9.02;;
67065;SDS011;53978;43.846;25.952;2022-11-20T10:56:56;13.23;;;8.15;;
67065;SDS011;53978;43.846;25.952;2022-11-20T11:02:34;16.35;;;8.35;;
67065;SDS011;53978;43.846;25.952;2022-11-20T11:05:46;22.05;;;9.48;;
67065;SDS011;53978;43.846;25.952;2022-11-20T11:08:05;20.33;;;9.02;;
67065;SDS011;53978;43.846;25.952;2022-11-20T11:10:53;20.40;;;9.45;;
67065;SDS011;53978;43.846;25.952;2022-11-20T11:13:24;19.85;;;8.68;;
67065;SDS011;53978;43.846;25.952;2022-11-20T11:15:49;24.00;;;9.40;;
67065;SDS011;53978;43.846;25.952;2022-11-20T11:20:57;18.02;;;9.35;;
67065;SDS011;53978;43.846;25.952;2022-11-20T11:23:28;18.35;;;9.07;;
67065;SDS011;53978;43.846;25.952;2022-11-20T11:25:59;17.10;;;8.70;;
67065;SDS011;53978;43.846;25.952;2022-11-20T11:28:25;18.98;;;9.50;;
67065;SDS011;53978;43.846;25.952;2022-11-20T11:30:53;21.23;;;10.23;;
67065;SDS011;53978;43.846;25.952;2022-11-20T11:33:20;25.75;;;10.63;;
67065;SDS011;53978;43.846;25.952;2022-11-20T11:35:50;25.50;;;10.85;;
67065;SDS011;53978;43.846;25.952;2022-11-20T11:38:27;20.45;;;10.43;;
67065;SDS011;53978;43.846;25.952;2022-11-20T11:40:56;21.47;;;10.77;;
67065;SDS011;53978;43.846;25.952;2022-11-20T11:43:26;22.52;;;10.63;;
67065;SDS011;53978;43.846;25.952;2022-11-20T11:51:45;23.98;;;10.38;;
67065;SDS011;53978;43.846;25.952;2022-11-20T11:54:26;23.75;;;9.93;;
67065;SDS011;53978;43.846;25.952;2022-11-20T11:56:55;21.45;;;10.82;;
67065;SDS011;53978;43.846;25.952;2022-11-20T11:59:39;21.08;;;11.63;;
67065;SDS011;53978;43.846;25.952;2022-11-20T12:02:15;21.13;;;10.73;;
67065;SDS011;53978;43.846;25.952;2022-11-20T12:05:44;20.25;;;10.55;;
67065;SDS011;53978;43.846;25.952;2022-11-20T12:15:47;22.00;;;11.63;;
67065;SDS011;53978;43.846;25.952;2022-11-20T12:18:16;22.92;;;11.30;;
67065;SDS011;53978;43.846;25.952;2022-11-20T12:29:34;19.10;;;10.60;;
67065;SDS011;53978;43.846;25.952;2022-11-20T12:34:44;24.20;;;11.70;;
67065;SDS011;53978;43.846;25.952;2022-11-20T12:37:20;25.58;;;12.32;;
67065;SDS011;53978;43.846;25.952;2022-11-20T12:55:08;20.42;;;9.73;;
67065;SDS011;53978;43.846;25.952;2022-11-20T13:00:29;23.13;;;11.15;;
67065;SDS011;53978;43.846;25.952;2022-11-20T13:08:35;18.40;;;10.50;;
67065;SDS011;53978;43.846;25.952;2022-11-20T13:11:13;19.85;;;11.25;;
67065;SDS011;53978;43.846;25.952;2022-11-20T13:20:01;22.77;;;11.38;;
67065;SDS011;53978;43.846;25.952;2022-11-20T13:22:46;20.38;;;10.75;;
67065;SDS011;53978;43.846;25.952;2022-11-20T13:28:34;22.90;;;11.68;;
67065;SDS011;53978;43.846;25.952;2022-11-20T13:31:00;24.65;;;14.05;;
67065;SDS011;53978;43.846;25.952;2022-11-20T13:33:36;18.10;;;11.45;;
67065;SDS011;53978;43.846;25.952;2022-11-20T13:36:03;21.95;;;12.35;;
67065;SDS011;53978;43.846;25.952;2022-11-20T13:38:46;20.00;;;11.32;;
67065;SDS011;53978;43.846;25.952;2022-11-20T13:41:23;21.25;;;11.63;;
67065;SDS011;53978;43.846;25.952;2022-11-20T13:46:47;19.55;;;11.02;;
67065;SDS011;53978;43.846;25.952;2022-11-20T13:51:51;20.55;;;11.02;;
67065;SDS011;53978;43.846;25.952;2022-11-20T14:00:14;21.60;;;10.73;;
67065;SDS011;53978;43.846;25.952;2022-11-20T14:02:40;20.70;;;10.88;;
67065;SDS011;53978;43.846;25.952;2022-11-20T14:05:11;20.75;;;11.32;;
67065;SDS011;53978;43.846;25.952;2022-11-20T14:07:57;20.08;;;10.82;;
67065;SDS011;53978;43.846;25.952;2022-11-20T14:13:22;20.40;;;10.38;;
67065;SDS011;53978;43.846;25.952;2022-11-20T14:15:47;19.63;;;10.20;;
67065;SDS011;53978;43.846;25.952;2022-11-20T14:18:14;18.25;;;10.55;;
67065;SDS011;53978;43.846;25.952;2022-11-20T14:20:43;17.60;;;10.10;;
67065;SDS011;53978;43.846;25.952;2022-11-20T14:23:09;18.67;;;10.13;;
67065;SDS011;53978;43.846;25.952;2022-11-20T14:25:35;19.55;;;11.38;;
67065;SDS011;53978;43.846;25.952;2022-11-20T14:28:01;18.83;;;10.32;;
67065;SDS011;53978;43.846;25.952;2022-11-20T14:30:28;17.17;;;9.63;;
67065;SDS011;53978;43.846;25.952;2022-11-20T14:33:02;16.83;;;9.13;;
67065;SDS011;53978;43.846;25.952;2022-11-20T14:35:29;17.65;;;9.68;;
67065;SDS011;53978;43.846;25.952;2022-11-20T14:38:02;18.75;;;9.75;;
67065;SDS011;53978;43.846;25.952;2022-11-20T14:40:31;15.88;;;9.50;;
67065;SDS011;53978;43.846;25.952;2022-11-20T14:43:00;17.08;;;9.70;;
67065;SDS011;53978;43.846;25.952;2022-11-20T14:45:26;16.88;;;10.00;;
67065;SDS011;53978;43.846;25.952;2022-11-20T14:47:59;24.38;;;10.05;;
67065;SDS011;53978;43.846;25.952;2022-11-20T14:50:34;19.23;;;10.15;;
67065;SDS011;53978;43.846;25.952;2022-11-20T14:53:00;18.48;;;9.35;;
67065;SDS011;53978;43.846;25.952;2022-11-20T14:58:06;19.65;;;10.65;;
67065;SDS011;53978;43.846;25.952;2022-11-20T15:00:53;16.58;;;10.20;;
67065;SDS011;53978;43.846;25.952;2022-11-20T15:03:20;16.13;;;10.10;;
67065;SDS011;53978;43.846;25.952;2022-11-20T15:05:46;17.02;;;10.10;;
67065;SDS011;53978;43.846;25.952;2022-11-20T15:08:14;16.55;;;9.95;;
67065;SDS011;53978;43.846;25.952;2022-11-20T15:10:44;16.90;;;10.13;;
67065;SDS011;53978;43.846;25.952;2022-11-20T15:13:12;18.35;;;9.93;;
67065;SDS011;53978;43.846;25.952;2022-11-20T15:15:51;16.92;;;9.10;;
67065;SDS011;53978;43.846;25.952;2022-11-20T15:18:21;14.38;;;9.25;;
67065;SDS011;53978;43.846;25.952;2022-11-20T15:20:51;19.13;;;11.65;;
67065;SDS011;53978;43.846;25.952;2022-11-20T15:23:17;19.83;;;11.30;;
67065;SDS011;53978;43.846;25.952;2022-11-20T15:25:43;17.55;;;10.88;;
67065;SDS011;53978;43.846;25.952;2022-11-20T15:28:16;15.75;;;9.50;;
67065;SDS011;53978;43.846;25.952;2022-11-20T15:30:45;16.60;;;9.90;;
67065;SDS011;53978;43.846;25.952;2022-11-20T15:33:11;18.42;;;10.45;;
67065;SDS011;53978;43.846;25.952;2022-11-20T15:35:36;43.67;;;18.63;;
67065;SDS011;53978;43.846;25.952;2022-11-20T15:38:02;25.27;;;15.20;;
67065;SDS011;53978;43.846;25.952;2022-11-20T15:40:30;18.38;;;11.70;;
67065;SDS011;53978;43.846;25.952;2022-11-20T15:42:56;18.85;;;11.57;;
67065;SDS011;53978;43.846;25.952;2022-11-20T15:48:04;17.35;;;9.77;;
67065;SDS011;53978;43.846;25.952;2022-11-20T15:53:26;18.67;;;10.00;;
67065;SDS011;53978;43.846;25.952;2022-11-20T15:55:52;18.80;;;10.32;;
67065;SDS011;53978;43.846;25.952;2022-11-20T15:58:18;19.48;;;11.13;;
67065;SDS011;53978;43.846;25.952;2022-11-20T16:00:43;25.35;;;11.48;;
67065;SDS011;53978;43.846;25.952;2022-11-20T16:03:12;20.10;;;12.55;;
67065;SDS011;53978;43.846;25.952;2022-11-20T16:05:38;24.88;;;12.98;;
67065;SDS011;53978;43.846;25.952;2022-11-20T16:08:03;24.27;;;13.80;;
67065;SDS011;53978;43.846;25.952;2022-11-20T16:10:29;21.30;;;12.30;;
67065;SDS011;53978;43.846;25.952;2022-11-20T16:12:54;21.75;;;11.60;;
67065;SDS011;53978;43.846;25.952;2022-11-20T16:15:38;18.53;;;10.87;;
67065;SDS011;53978;43.846;25.952;2022-11-20T16:18:10;19.30;;;11.27;;
67065;SDS011;53978;43.846;25.952;2022-11-20T16:20:37;16.48;;;10.77;;
67065;SDS011;53978;43.846;25.952;2022-11-20T16:23:03;17.27;;;10.35;;
67065;SDS011;53978;43.846;25.952;2022-11-20T16:25:29;19.48;;;10.95;;
67065;SDS011;53978;43.846;25.952;2022-11-20T16:27:56;16.63;;;10.18;;
67065;SDS011;53978;43.846;25.952;2022-11-20T16:30:22;16.83;;;9.55;;
67065;SDS011;53978;43.846;25.952;2022-11-20T16:32:48;14.20;;;8.98;;